Time;durP1;ratioP1;P1;durP2;ratioP2;P2;SDS_P1;SDS_P2;PMS_P1;PMS_P2;Temp;Humidity;BMP_temperature;BMP_pressure;BME280_temperature;BME280_humidity;BME280_pressure;Samples;Min_cycle;Max_cycle;Signal;HPM_P1;HPM_P2
2023/07/15 00:01:27;;;;;;;8.07;6.80;;;18.40;99.90;;;;;;5094195;28;20071;-61
2023/07/15 00:03:54;;;;;;;10.75;7.00;;;18.40;99.90;;;;;;5093323;28;20055;-61
2023/07/15 00:06:21;;;;;;;8.63;6.20;;;18.40;99.90;;;;;;5092754;28;20036;-61
2023/07/15 00:08:47;;;;;;;11.27;6.55;;;18.40;99.90;;;;;;5093208;28;20035;-61
2023/07/15 00:11:33;;;;;;;9.07;6.28;;;18.40;99.90;;;;;;5092179;28;20040;-61
2023/07/15 00:14:00;;;;;;;9.38;5.90;;;18.50;99.90;;;;;;5094128;28;20080;-61
2023/07/15 00:16:29;;;;;;;9.32;6.20;;;18.50;99.90;;;;;;5092634;28;20077;-61
2023/07/15 00:18:55;;;;;;;8.25;5.97;;;18.50;99.90;;;;;;5091675;28;20198;-62
2023/07/15 00:21:30;;;;;;;9.23;6.40;;;18.60;99.90;;;;;;5093563;28;20043;-61
2023/07/15 00:23:57;;;;;;;8.02;5.55;;;18.50;99.90;;;;;;5092689;28;20048;-61
2023/07/15 00:26:26;;;;;;;7.05;5.25;;;18.60;99.90;;;;;;5093111;28;20075;-61
2023/07/15 00:28:51;;;;;;;7.90;5.53;;;18.60;99.90;;;;;;5093729;28;20032;-61
2023/07/15 00:31:19;;;;;;;11.25;6.00;;;18.60;99.90;;;;;;5092687;28;20370;-61
2023/07/15 00:33:46;;;;;;;9.32;5.13;;;18.60;99.90;;;;;;5091600;28;20040;-61
2023/07/15 00:36:12;;;;;;;7.57;5.13;;;18.60;99.90;;;;;;5092626;28;20040;-62
2023/07/15 00:38:40;;;;;;;9.95;5.97;;;18.70;99.90;;;;;;5093938;28;20086;-61
2023/07/15 00:41:15;;;;;;;8.25;5.57;;;18.60;99.90;;;;;;5092890;28;20484;-61
2023/07/15 00:43:56;;;;;;;6.80;4.55;;;18.70;99.90;;;;;;5126720;27;20054;-63
2023/07/15 00:46:22;;;;;;;6.45;4.63;;;18.70;99.90;;;;;;5091468;28;20044;-63
2023/07/15 00:49:03;;;;;;;9.70;5.13;;;18.70;99.90;;;;;;5092242;28;20449;-63
2023/07/15 00:51:37;;;;;;;7.68;4.80;;;18.70;99.90;;;;;;5091245;28;20044;-62
2023/07/15 00:54:04;;;;;;;8.43;4.57;;;18.80;99.90;;;;;;5074722;28;20435;-62
2023/07/15 00:56:32;;;;;;;8.00;4.70;;;18.80;99.90;;;;;;5093375;28;20378;-62
2023/07/15 00:58:59;;;;;;;9.90;4.95;;;18.80;99.90;;;;;;5091940;28;20044;-62
2023/07/15 01:01:24;;;;;;;7.85;4.55;;;18.90;99.90;;;;;;5090960;28;20404;-63
2023/07/15 01:03:50;;;;;;;8.18;4.20;;;18.90;99.90;;;;;;5093054;28;20044;-63
2023/07/15 01:06:16;;;;;;;7.43;4.30;;;18.90;99.90;;;;;;5091780;28;20039;-63
2023/07/15 01:08:42;;;;;;;8.13;4.38;;;18.90;99.90;;;;;;5091187;28;20048;-63
2023/07/15 01:11:10;;;;;;;8.13;4.43;;;18.90;99.90;;;;;;5091823;28;20040;-63
2023/07/15 01:13:36;;;;;;;8.60;4.35;;;18.90;99.90;;;;;;5091929;28;20090;-62
2023/07/15 01:16:01;;;;;;;7.45;4.18;;;18.90;99.90;;;;;;5090646;28;20113;-62
2023/07/15 01:18:28;;;;;;;7.80;4.38;;;18.90;99.90;;;;;;5092871;28;20044;-62
2023/07/15 01:20:58;;;;;;;8.48;3.92;;;18.90;99.90;;;;;;5074669;28;20036;-62
2023/07/15 01:23:24;;;;;;;6.10;3.63;;;18.90;99.90;;;;;;5092579;28;20039;-62
2023/07/15 01:25:50;;;;;;;9.18;4.15;;;19.00;99.90;;;;;;5092931;28;20034;-62
2023/07/15 01:28:16;;;;;;;6.30;3.78;;;19.00;99.90;;;;;;5090728;28;20126;-62
2023/07/15 01:30:41;;;;;;;7.28;3.65;;;19.10;99.90;;;;;;5092489;28;20036;-62
2023/07/15 01:33:07;;;;;;;7.25;3.95;;;19.10;99.90;;;;;;5092431;28;20497;-62
2023/07/15 01:35:33;;;;;;;8.70;3.60;;;19.20;99.90;;;;;;5091766;28;20047;-62
2023/07/15 01:37:58;;;;;;;6.78;3.45;;;19.30;99.90;;;;;;5091293;28;20465;-62
2023/07/15 01:40:24;;;;;;;8.55;3.40;;;19.40;99.90;;;;;;5092571;28;20486;-63
2023/07/15 01:42:49;;;;;;;7.20;3.40;;;19.40;99.90;;;;;;5091586;28;20066;-62
2023/07/15 01:45:15;;;;;;;6.68;3.40;;;19.50;99.90;;;;;;5092390;28;20133;-62
2023/07/15 01:47:41;;;;;;;6.43;3.58;;;19.50;99.90;;;;;;5091167;28;20040;-62
2023/07/15 01:50:08;;;;;;;6.28;3.88;;;19.60;99.90;;;;;;5090480;28;20056;-62
2023/07/15 01:52:34;;;;;;;7.43;3.90;;;19.60;99.90;;;;;;5091066;28;20047;-62
2023/07/15 01:55:00;;;;;;;6.72;3.67;;;19.60;99.90;;;;;;5091326;28;20384;-62
2023/07/15 01:57:26;;;;;;;9.50;3.83;;;19.60;99.90;;;;;;5073415;28;20044;-62
2023/07/15 01:59:57;;;;;;;8.75;3.92;;;19.50;99.90;;;;;;5091863;28;20481;-62
2023/07/15 02:02:24;;;;;;;5.63;3.47;;;19.50;99.90;;;;;;5092141;28;20040;-62
2023/07/15 02:04:50;;;;;;;6.25;3.22;;;19.50;99.90;;;;;;5090143;28;20531;-62
2023/07/15 02:07:16;;;;;;;8.98;3.88;;;19.50;99.90;;;;;;5091148;28;20119;-62
2023/07/15 02:09:41;;;;;;;9.75;3.63;;;19.50;99.90;;;;;;5107763;28;20534;-62
2023/07/15 02:12:07;;;;;;;5.88;3.55;;;19.50;99.90;;;;;;5091564;28;20082;-62
2023/07/15 02:14:36;;;;;;;5.93;3.40;;;19.40;99.90;;;;;;5092222;28;20094;-62
2023/07/15 02:17:05;;;;;;;6.28;3.75;;;19.40;99.90;;;;;;5092049;28;20500;-62
2023/07/15 02:19:31;;;;;;;7.18;3.40;;;19.40;99.90;;;;;;5091439;28;20032;-62
2023/07/15 02:21:57;;;;;;;5.60;3.10;;;19.50;99.90;;;;;;5093600;28;20055;-62
2023/07/15 02:24:23;;;;;;;6.15;3.00;;;19.50;99.90;;;;;;5095653;28;20040;-62
2023/07/15 02:26:49;;;;;;;5.00;3.00;;;19.50;99.90;;;;;;5129002;27;20044;-62
2023/07/15 02:29:14;;;;;;;8.13;3.20;;;19.50;99.90;;;;;;5094536;28;20086;-62
2023/07/15 02:31:41;;;;;;;6.55;3.28;;;19.60;99.90;;;;;;5128263;27;20052;-62
2023/07/15 02:34:07;;;;;;;6.50;3.03;;;19.60;99.90;;;;;;5096574;28;20032;-63
2023/07/15 02:36:33;;;;;;;13.25;3.95;;;19.70;99.90;;;;;;5128982;27;20044;-62
2023/07/15 02:38:59;;;;;;;8.75;3.10;;;19.70;99.90;;;;;;5093839;28;20047;-62
2023/07/15 02:41:25;;;;;;;7.65;3.28;;;19.70;99.90;;;;;;5095824;28;20122;-62
2023/07/15 02:43:51;;;;;;;6.68;3.10;;;19.80;99.90;;;;;;5094703;28;20042;-62
2023/07/15 02:46:17;;;;;;;8.95;3.30;;;19.80;99.90;;;;;;5076828;28;20489;-62
2023/07/15 02:48:42;;;;;;;5.45;2.97;;;19.90;99.90;;;;;;5095789;28;20059;-62
2023/07/15 02:51:08;;;;;;;5.60;3.17;;;19.90;99.90;;;;;;5094906;28;20140;-62
2023/07/15 02:53:34;;;;;;;6.72;3.17;;;19.90;99.90;;;;;;5093452;28;20116;-62
2023/07/15 02:56:00;;;;;;;5.63;3.22;;;20.00;99.90;;;;;;5094147;28;20047;-62
2023/07/15 02:58:26;;;;;;;7.90;3.15;;;20.00;99.90;;;;;;5095569;28;20051;-62
2023/07/15 03:00:52;;;;;;;6.63;3.17;;;20.00;99.90;;;;;;5093449;28;20032;-62
2023/07/15 03:03:18;;;;;;;5.45;2.60;;;20.00;99.90;;;;;;5094397;28;20032;-62
2023/07/15 03:05:49;;;;;;;6.90;3.13;;;20.00;99.90;;;;;;5095029;28;20115;-62
2023/07/15 03:08:14;;;;;;;7.32;3.22;;;20.10;99.90;;;;;;5093249;28;20051;-62
2023/07/15 03:10:44;;;;;;;4.97;2.75;;;20.10;99.90;;;;;;5094172;28;20048;-62
2023/07/15 03:13:11;;;;;;;9.45;3.53;;;20.10;99.90;;;;;;5095465;28;20199;-62
2023/07/15 03:15:37;;;;;;;6.95;3.33;;;20.10;99.90;;;;;;5094420;28;20409;-62
2023/07/15 03:18:03;;;;;;;6.53;3.30;;;20.00;99.90;;;;;;5094241;28;20038;-62
2023/07/15 03:20:30;;;;;;;8.10;3.40;;;20.00;99.90;;;;;;5093895;28;20529;-62
2023/07/15 03:22:56;;;;;;;6.72;3.25;;;20.00;99.90;;;;;;5094248;28;20079;-62
2023/07/15 03:25:22;;;;;;;5.47;2.80;;;19.90;99.90;;;;;;5094969;28;20047;-62
2023/07/15 03:27:49;;;;;;;7.03;3.20;;;19.90;99.90;;;;;;5092983;28;20044;-62
2023/07/15 03:30:15;;;;;;;6.00;2.80;;;19.80;99.90;;;;;;5095134;28;20079;-62
2023/07/15 03:32:42;;;;;;;11.07;3.50;;;19.90;99.90;;;;;;5093568;28;20082;-62
2023/07/15 03:35:09;;;;;;;7.50;3.22;;;19.80;99.90;;;;;;5093907;28;20078;-62
2023/07/15 03:37:36;;;;;;;5.50;2.50;;;19.80;99.90;;;;;;5094955;28;20112;-62
2023/07/15 03:40:07;;;;;;;6.97;3.20;;;19.70;99.90;;;;;;5093520;28;20173;-62
2023/07/15 03:42:32;;;;;;;7.35;3.47;;;19.70;99.90;;;;;;5092619;28;20048;-62
2023/07/15 03:44:58;;;;;;;5.63;3.03;;;19.60;99.90;;;;;;5093772;28;20438;-63
2023/07/15 03:47:24;;;;;;;9.30;3.40;;;19.60;99.90;;;;;;5093402;28;20032;-63
2023/07/15 03:49:49;;;;;;;9.73;3.75;;;19.60;99.90;;;;;;5109367;28;20051;-62
2023/07/15 03:52:15;;;;;;;7.45;3.58;;;19.50;99.90;;;;;;5094188;28;20087;-62
2023/07/15 03:54:44;;;;;;;8.23;3.78;;;19.50;99.90;;;;;;5094425;28;20036;-62
2023/07/15 03:57:10;;;;;;;6.68;3.20;;;19.50;99.90;;;;;;5092769;28;20123;-62
2023/07/15 03:59:36;;;;;;;8.73;4.00;;;19.40;99.90;;;;;;5093720;28;20089;-62
2023/07/15 04:02:02;;;;;;;6.82;3.42;;;19.40;99.90;;;;;;5076340;28;20032;-62
2023/07/15 04:04:27;;;;;;;5.70;3.10;;;19.40;99.90;;;;;;5092164;28;20093;-62
2023/07/15 04:06:54;;;;;;;8.77;3.85;;;19.40;99.90;;;;;;5094300;28;20075;-62
2023/07/15 04:09:21;;;;;;;6.32;3.25;;;19.40;99.90;;;;;;5092906;28;20040;-62
2023/07/15 04:11:46;;;;;;;9.43;3.67;;;19.40;99.90;;;;;;5092109;28;20052;-62
2023/07/15 04:14:12;;;;;;;7.82;3.55;;;19.40;99.90;;;;;;5127293;27;20128;-62
2023/07/15 04:16:41;;;;;;;7.63;3.40;;;19.30;99.90;;;;;;5092838;28;20397;-62
2023/07/15 04:19:07;;;;;;;10.43;3.33;;;19.30;99.90;;;;;;5093593;28;20040;-62
2023/07/15 04:21:32;;;;;;;7.32;3.60;;;19.40;99.90;;;;;;5092980;28;20081;-62
2023/07/15 04:23:58;;;;;;;6.57;3.75;;;19.40;99.90;;;;;;5091810;28;20111;-63
2023/07/15 04:26:26;;;;;;;8.13;3.63;;;19.30;99.90;;;;;;5126659;27;20109;-62
2023/07/15 04:28:54;;;;;;;7.05;3.60;;;19.30;99.90;;;;;;5092704;28;20085;-62
2023/07/15 04:31:20;;;;;;;6.85;3.67;;;19.30;99.90;;;;;;5092873;28;20550;-63
2023/07/15 04:33:47;;;;;;;5.88;3.72;;;19.30;99.90;;;;;;5093846;28;20044;-62
2023/07/15 04:36:13;;;;;;;8.38;4.13;;;19.30;99.90;;;;;;5093739;28;20032;-62
2023/07/15 04:38:39;;;;;;;8.27;3.85;;;19.30;99.90;;;;;;5092997;28;20036;-62
2023/07/15 04:41:05;;;;;;;6.32;3.70;;;19.30;99.90;;;;;;5093242;28;20100;-62
2023/07/15 04:43:31;;;;;;;5.80;3.83;;;19.30;99.90;;;;;;5093027;28;20036;-62
2023/07/15 04:45:58;;;;;;;6.20;3.50;;;19.30;99.90;;;;;;5092687;28;20048;-62
2023/07/15 04:48:23;;;;;;;7.10;4.18;;;19.30;99.90;;;;;;5075583;28;20393;-63
2023/07/15 04:50:52;;;;;;;6.72;3.70;;;19.30;99.90;;;;;;5126204;27;20048;-63
2023/07/15 04:53:18;;;;;;;9.90;3.83;;;19.30;99.90;;;;;;5092401;28;20032;-62
2023/07/15 04:55:48;;;;;;;6.97;3.90;;;19.30;99.90;;;;;;5091258;28;20040;-62
2023/07/15 04:58:15;;;;;;;5.95;3.72;;;19.40;99.90;;;;;;5093245;28;20028;-62
2023/07/15 05:00:42;;;;;;;7.88;4.07;;;19.40;99.90;;;;;;5091143;28;20472;-62
2023/07/15 05:03:08;;;;;;;8.02;3.40;;;19.40;99.90;;;;;;5092628;28;20522;-62
2023/07/15 05:05:35;;;;;;;7.50;3.58;;;19.50;99.90;;;;;;5092168;28;20118;-62
2023/07/15 05:08:09;;;;;;;6.85;4.15;;;19.50;99.90;;;;;;5090758;28;20051;-62
2023/07/15 05:10:36;;;;;;;;;;;19.60;99.90;;;;;;5092371;28;20059;-62
2023/07/15 05:13:01;;;;;;;7.35;4.07;;;19.60;99.90;;;;;;5093577;28;20284;-63
2023/07/15 05:15:28;;;;;;;7.57;4.30;;;19.70;99.90;;;;;;5091267;28;20062;-62
2023/07/15 05:17:54;;;;;;;9.07;4.38;;;19.80;99.90;;;;;;5091776;28;20048;-63
2023/07/15 05:20:20;;;;;;;7.10;3.78;;;19.90;99.90;;;;;;5091908;28;20405;-62
2023/07/15 05:22:46;;;;;;;7.65;4.07;;;20.00;99.90;;;;;;5092603;28;20035;-62
2023/07/15 05:25:14;;;;;;;7.32;4.13;;;20.10;99.90;;;;;;5091843;28;20044;-62
2023/07/15 05:27:40;;;;;;;6.68;4.07;;;20.20;99.90;;;;;;5090928;28;20508;-63
2023/07/15 05:30:06;;;;;;;7.55;4.75;;;20.30;99.90;;;;;;5091795;28;20081;-62
2023/07/15 05:32:32;;;;;;;7.10;3.88;;;20.40;99.90;;;;;;5091329;28;20062;-62
2023/07/15 05:34:58;;;;;;;10.27;3.85;;;20.50;99.90;;;;;;5124648;27;20122;-63
2023/07/15 05:37:23;;;;;;;6.63;4.03;;;20.60;99.90;;;;;;5092621;28;20036;-62
2023/07/15 05:39:49;;;;;;;8.77;4.90;;;20.60;99.90;;;;;;5125718;27;20036;-62
2023/07/15 05:42:15;;;;;;;6.53;3.95;;;20.70;99.90;;;;;;5124423;27;20158;-62
2023/07/15 05:44:40;;;;;;;8.02;4.20;;;20.80;99.90;;;;;;5092504;28;20100;-62
2023/07/15 05:47:06;;;;;;;8.40;5.03;;;20.90;99.90;;;;;;5092960;28;20035;-62
2023/07/15 05:49:32;;;;;;;7.30;4.60;;;20.90;99.90;;;;;;5089919;28;20059;-63
2023/07/15 05:51:58;;;;;;;7.65;4.03;;;21.00;99.90;;;;;;5092087;28;20044;-62
2023/07/15 05:54:23;;;;;;;5.75;4.18;;;21.10;99.90;;;;;;5125402;27;20046;-62
2023/07/15 05:56:49;;;;;;;8.32;4.43;;;21.10;99.90;;;;;;5090852;28;20036;-63
2023/07/15 05:59:15;;;;;;;8.75;4.20;;;21.10;99.90;;;;;;5125009;27;20046;-62
2023/07/15 06:01:41;;;;;;;6.70;4.40;;;21.10;99.90;;;;;;5091063;28;20044;-62
2023/07/15 06:04:08;;;;;;;10.25;4.75;;;21.20;99.90;;;;;;5090187;28;20519;-62
2023/07/15 06:06:34;;;;;;;8.15;4.18;;;21.20;99.90;;;;;;5092425;28;20044;-62
2023/07/15 06:09:01;;;;;;;8.02;4.85;;;21.20;99.90;;;;;;5090456;28;20081;-62
2023/07/15 06:11:26;;;;;;;6.05;3.70;;;21.20;99.90;;;;;;5088444;28;20547;-62
2023/07/15 06:13:52;;;;;;;7.55;4.45;;;21.10;99.90;;;;;;5090739;28;20036;-62
2023/07/15 06:16:18;;;;;;;7.88;4.57;;;21.10;99.90;;;;;;5088115;28;20036;-63
2023/07/15 06:18:44;;;;;;;8.07;4.93;;;21.00;99.90;;;;;;5088894;28;20066;-62
2023/07/15 06:21:10;;;;;;;12.38;4.70;;;21.00;99.90;;;;;;5089511;28;20047;-63
2023/07/15 06:23:35;;;;;;;6.82;4.40;;;21.10;99.90;;;;;;5089935;28;20047;-62
2023/07/15 06:26:01;;;;;;;10.75;4.65;;;21.20;99.90;;;;;;5088907;28;20047;-62
2023/07/15 06:28:27;;;;;;;6.95;4.18;;;21.20;99.90;;;;;;5090209;28;20047;-62
2023/07/15 06:31:06;;;;;;;9.30;4.25;;;21.30;99.90;;;;;;5089462;28;20042;-62
2023/07/15 06:33:34;;;;;;;7.40;4.13;;;21.50;99.90;;;;;;5087934;28;20032;-62
2023/07/15 06:36:00;;;;;;;8.48;4.43;;;21.50;99.90;;;;;;5088710;28;20040;-62
2023/07/15 06:38:27;;;;;;;8.57;4.07;;;21.60;99.90;;;;;;5088098;28;20032;-62
2023/07/15 06:40:58;;;;;;;6.85;3.88;;;21.70;99.90;;;;;;5089280;28;20032;-62
2023/07/15 06:43:23;;;;;;;6.88;3.70;;;21.90;99.90;;;;;;5088742;28;20044;-62
2023/07/15 06:45:49;;;;;;;8.93;4.10;;;22.00;99.90;;;;;;5089013;28;20081;-62
2023/07/15 06:48:17;;;;;;;6.28;3.42;;;22.10;99.90;;;;;;5089352;28;20065;-63
2023/07/15 06:50:43;;;;;;;6.57;3.88;;;22.20;99.90;;;;;;5088946;28;20052;-63
2023/07/15 06:53:09;;;;;;;6.32;3.28;;;22.30;99.90;;;;;;5089546;28;20427;-62
2023/07/15 06:55:36;;;;;;;5.13;2.25;;;22.40;99.90;;;;;;5090457;28;20297;-62
2023/07/15 06:58:02;;;;;;;6.72;2.05;;;22.50;99.90;;;;;;5089693;28;20082;-62
2023/07/15 07:00:28;;;;;;;6.55;2.10;;;22.50;99.90;;;;;;5089113;28;20120;-62
2023/07/15 07:02:54;;;;;;;7.57;1.90;;;22.50;99.90;;;;;;5088741;28;20123;-62
2023/07/15 07:05:19;;;;;;;4.32;1.98;;;22.50;99.90;;;;;;5089850;28;20040;-62
2023/07/15 07:07:46;;;;;;;4.70;2.05;;;22.40;99.90;;;;;;5087258;28;20411;-62
2023/07/15 07:10:12;;;;;;;4.65;2.08;;;22.30;99.90;;;;;;5085586;28;20397;-62
2023/07/15 07:12:39;;;;;;;4.53;2.17;;;22.30;99.90;;;;;;5090412;28;20044;-62
2023/07/15 07:15:06;;;;;;;5.78;2.03;;;22.20;99.90;;;;;;5090587;28;20047;-62
2023/07/15 07:17:32;;;;;;;6.72;2.50;;;22.20;99.90;;;;;;5118321;27;20384;-63
2023/07/15 07:19:58;;;;;;;5.90;2.30;;;22.20;99.90;;;;;;5089359;28;20074;-62
2023/07/15 07:22:24;;;;;;;6.15;2.67;;;22.30;99.90;;;;;;5090494;28;20043;-62
2023/07/15 07:24:51;;;;;;;5.60;2.80;;;22.30;99.90;;;;;;5090493;28;20043;-62
2023/07/15 07:27:18;;;;;;;7.13;3.33;;;22.30;99.90;;;;;;5087870;28;20048;-62
2023/07/15 07:29:43;;;;;;;5.90;2.72;;;22.40;99.90;;;;;;5086083;28;20044;-62
2023/07/15 07:32:09;;;;;;;7.63;3.42;;;22.30;99.90;;;;;;5089293;28;20381;-62
2023/07/15 07:34:35;;;;;;;6.85;3.28;;;22.30;99.90;;;;;;5088972;28;20613;-62
2023/07/15 07:37:01;;;;;;;6.88;3.13;;;22.30;99.90;;;;;;5090496;28;20102;-62
2023/07/15 07:39:26;;;;;;;5.82;2.75;;;22.30;99.90;;;;;;5099269;28;21840;-62
2023/07/15 07:41:54;;;;;;;5.82;2.72;;;22.30;99.90;;;;;;5089524;28;20074;-63
2023/07/15 07:44:24;;;;;;;7.10;2.92;;;22.40;99.90;;;;;;5088181;28;20044;-62
2023/07/15 07:46:50;;;;;;;5.30;2.50;;;22.40;99.90;;;;;;5073047;28;20122;-62
2023/07/15 07:49:17;;;;;;;7.90;2.70;;;22.50;99.90;;;;;;5070903;28;20056;-62
2023/07/15 07:51:43;;;;;;;5.35;2.92;;;22.60;99.90;;;;;;5090232;28;20083;-63
2023/07/15 07:54:09;;;;;;;6.45;2.85;;;22.60;99.90;;;;;;5073942;28;20453;-63
2023/07/15 07:56:35;;;;;;;7.03;2.97;;;22.80;99.90;;;;;;5094067;28;20074;-63
2023/07/15 07:59:02;;;;;;;7.10;2.85;;;22.80;99.90;;;;;;5090328;28;20044;-63
2023/07/15 08:01:30;;;;;;;5.03;2.33;;;23.00;99.90;;;;;;5090144;28;20052;-63
2023/07/15 08:03:57;;;;;;;5.53;2.58;;;23.00;99.90;;;;;;5089775;28;20081;-63
2023/07/15 08:06:24;;;;;;;6.60;2.28;;;23.10;99.90;;;;;;5089903;28;20055;-63
2023/07/15 08:08:50;;;;;;;5.70;2.33;;;23.00;99.90;;;;;;5091008;28;20044;-63
2023/07/15 08:11:16;;;;;;;5.78;2.10;;;23.10;99.90;;;;;;5090220;28;20090;-63
2023/07/15 08:13:42;;;;;;;5.13;2.22;;;23.20;99.90;;;;;;5089769;28;20055;-63
2023/07/15 08:16:33;;;;;;;4.85;1.85;;;23.20;99.90;;;;;;5089611;28;20044;-62
2023/07/15 08:18:59;;;;;;;4.28;1.70;;;23.20;99.90;;;;;;5039420;28;20052;-62
2023/07/15 08:21:27;;;;;;;5.30;1.98;;;23.20;99.90;;;;;;5091380;28;20116;-62
2023/07/15 08:23:53;;;;;;;7.75;2.35;;;23.20;99.90;;;;;;5090551;28;20052;-62
2023/07/15 08:26:19;;;;;;;5.07;2.50;;;23.20;99.90;;;;;;5090270;28;20097;-62
2023/07/15 08:28:45;;;;;;;5.93;2.47;;;23.20;99.90;;;;;;5088941;28;20090;-62
2023/07/15 08:31:11;;;;;;;5.15;2.40;;;23.20;99.90;;;;;;5071811;28;20075;-63
2023/07/15 08:33:36;;;;;;;5.18;2.50;;;23.40;99.90;;;;;;5091319;28;20546;-63
2023/07/15 08:36:02;;;;;;;5.07;2.15;;;23.50;99.90;;;;;;5090002;28;20123;-62
2023/07/15 08:38:29;;;;;;;5.45;2.63;;;23.50;99.90;;;;;;5090522;28;20083;-62
2023/07/15 08:40:59;;;;;;;5.10;2.10;;;23.50;99.90;;;;;;5089613;28;20221;-62
2023/07/15 08:43:25;;;;;;;5.85;2.30;;;23.50;99.90;;;;;;5084241;28;20048;-62
2023/07/15 08:45:54;;;;;;;4.35;1.95;;;23.50;99.90;;;;;;5071881;28;20043;-61
2023/07/15 08:48:19;;;;;;;4.97;2.20;;;23.50;99.90;;;;;;5072801;28;20044;-62
2023/07/15 08:50:47;;;;;;;5.07;1.95;;;23.50;99.90;;;;;;5090499;28;20062;-61
2023/07/15 08:53:14;;;;;;;4.38;2.05;;;23.60;99.90;;;;;;5088538;28;20473;-61
2023/07/15 08:55:41;;;;;;;5.85;2.20;;;23.50;99.90;;;;;;5087654;28;20047;-62
2023/07/15 08:58:07;;;;;;;6.45;1.98;;;23.70;99.90;;;;;;5089859;28;20032;-62
2023/07/15 09:00:33;;;;;;;5.25;1.85;;;23.70;99.90;;;;;;5071831;28;20047;-62
2023/07/15 09:02:59;;;;;;;5.30;1.75;;;23.80;99.90;;;;;;5088848;28;20402;-62
2023/07/15 09:05:25;;;;;;;4.22;1.90;;;23.80;99.90;;;;;;5088673;28;20117;-62
2023/07/15 09:07:55;;;;;;;4.88;1.77;;;23.90;99.90;;;;;;5090291;28;20046;-61
2023/07/15 09:10:21;;;;;;;2.80;1.15;;;23.80;99.90;;;;;;5089580;28;20093;-62
2023/07/15 09:12:55;;;;;;;3.88;1.50;;;23.90;99.90;;;;;;5088026;28;20044;-62
2023/07/15 09:15:21;;;;;;;6.50;1.77;;;23.70;99.90;;;;;;5090259;28;20389;-61
2023/07/15 09:17:51;;;;;;;4.80;1.90;;;23.60;99.90;;;;;;5091438;28;20505;-61
2023/07/15 09:20:18;;;;;;;4.57;1.55;;;23.60;99.90;;;;;;5090795;28;20044;-61
2023/07/15 09:22:52;;;;;;;3.85;1.52;;;23.60;99.90;;;;;;5092785;28;20032;-62
2023/07/15 09:25:21;;;;;;;4.13;1.73;;;23.70;99.90;;;;;;5091480;28;20047;-61
2023/07/15 09:27:46;;;;;;;4.32;1.67;;;23.80;99.90;;;;;;5090023;28;20040;-62
2023/07/15 09:30:12;;;;;;;4.15;1.60;;;23.80;99.90;;;;;;5074798;28;20477;-61
2023/07/15 09:32:38;;;;;;;5.75;1.63;;;23.80;99.90;;;;;;5093095;28;20465;-62
2023/07/15 09:35:57;;;;;;;5.32;1.65;;;24.00;99.90;;;;;;5125138;27;20384;-61
2023/07/15 09:38:23;;;;;;;4.00;1.60;;;24.10;99.90;;;;;;5124744;27;20036;-62
2023/07/15 09:40:49;;;;;;;5.43;1.63;;;24.10;99.90;;;;;;5073511;28;20142;-61
2023/07/15 09:43:15;;;;;;;5.55;2.15;;;24.10;99.90;;;;;;5092248;28;20087;-61
2023/07/15 09:45:41;;;;;;;5.60;1.85;;;24.10;99.90;;;;;;5090816;28;20396;-61
2023/07/15 09:48:16;;;;;;;5.32;1.98;;;24.10;99.90;;;;;;5090390;28;20040;-62
2023/07/15 09:50:43;;;;;;;4.55;1.70;;;24.20;99.90;;;;;;5090529;28;20058;-61
2023/07/15 09:53:09;;;;;;;4.93;1.75;;;24.30;99.90;;;;;;5090811;28;20088;-61
2023/07/15 09:55:36;;;;;;;4.95;1.85;;;24.50;99.90;;;;;;5090658;28;20081;-62
2023/07/15 09:58:08;;;;;;;6.13;1.90;;;24.50;99.90;;;;;;5090570;28;20040;-61
2023/07/15 10:00:37;;;;;;;5.10;1.80;;;24.60;99.90;;;;;;5091977;28;20051;-62
2023/07/15 10:03:05;;;;;;;5.47;1.33;;;24.50;99.90;;;;;;5091301;28;20431;-61
2023/07/15 10:05:32;;;;;;;5.57;2.00;;;24.50;99.90;;;;;;5090791;28;20042;-63
2023/07/15 10:07:58;;;;;;;4.70;1.77;;;24.40;99.90;;;;;;5090916;28;20052;-63
2023/07/15 10:10:23;;;;;;;5.80;1.67;;;24.40;99.90;;;;;;5091412;28;20078;-62
2023/07/15 10:12:50;;;;;;;5.32;1.70;;;24.30;99.90;;;;;;5091726;28;20036;-63
2023/07/15 10:15:17;;;;;;;5.07;1.58;;;24.20;99.90;;;;;;5090455;28;20492;-62
2023/07/15 10:17:45;;;;;;;6.03;1.88;;;24.00;99.90;;;;;;5090050;28;20036;-64
2023/07/15 10:20:11;;;;;;;4.10;1.33;;;23.90;99.90;;;;;;5119875;28;20032;-64
2023/07/15 10:22:37;;;;;;;4.72;2.00;;;23.80;99.90;;;;;;5090192;28;20396;-64
2023/07/15 10:25:07;;;;;;;6.05;1.95;;;23.90;99.90;;;;;;5091650;28;20515;-64
2023/07/15 10:27:33;;;;;;;5.95;1.75;;;24.00;99.90;;;;;;5073790;28;20050;-63
2023/07/15 10:30:23;;;;;;;6.05;1.60;;;24.10;99.90;;;;;;5089886;28;20062;-64
2023/07/15 10:33:00;;;;;;;4.82;1.65;;;24.20;99.90;;;;;;5091301;28;20044;-63
2023/07/15 10:35:46;;;;;;;4.18;1.83;;;24.40;99.90;;;;;;5091753;28;20504;-61
2023/07/15 10:38:25;;;;;;;8.13;1.90;;;24.50;99.90;;;;;;5089370;28;20077;-61
2023/07/15 10:40:56;;;;;;;3.67;1.52;;;24.70;99.90;;;;;;5088771;28;20489;-61
2023/07/15 10:43:34;;;;;;;3.78;1.58;;;24.80;99.90;;;;;;5093734;28;20055;-61
2023/07/15 10:46:07;;;;;;;4.65;1.98;;;25.00;99.90;;;;;;5127556;27;20130;-61
2023/07/15 10:48:33;;;;;;;7.35;2.33;;;25.00;99.90;;;;;;5095743;28;20130;-61
2023/07/15 10:51:07;;;;;;;5.90;1.75;;;25.00;99.90;;;;;;5094276;28;20058;-60
2023/07/15 10:53:33;;;;;;;3.92;1.70;;;25.10;99.90;;;;;;5094642;28;20863;-60
2023/07/15 10:56:11;;;;;;;5.78;2.22;;;25.10;99.90;;;;;;5093928;28;20040;-60
2023/07/15 10:58:37;;;;;;;5.28;2.05;;;25.30;99.90;;;;;;5093675;28;20043;-60
2023/07/15 11:01:11;;;;;;;5.25;1.73;;;25.30;99.90;;;;;;5093989;28;20059;-60
2023/07/15 11:03:39;;;;;;;4.80;1.80;;;25.30;99.90;;;;;;5094311;28;20051;-60
2023/07/15 11:06:05;;;;;;;3.92;1.75;;;25.20;99.90;;;;;;5095017;28;20266;-60
2023/07/15 11:08:32;;;;;;;3.40;1.58;;;25.20;99.90;;;;;;5092509;28;20032;-61
2023/07/15 11:11:03;;;;;;;4.28;1.63;;;25.30;99.90;;;;;;5094288;28;20040;-61
2023/07/15 11:13:29;;;;;;;4.40;1.65;;;25.40;99.90;;;;;;5093195;28;20082;-61
2023/07/15 11:15:56;;;;;;;3.20;1.40;;;25.40;99.90;;;;;;5094328;28;20169;-61
2023/07/15 11:18:24;;;;;;;3.88;1.50;;;25.50;99.90;;;;;;5094288;28;20100;-61
2023/07/15 11:20:52;;;;;;;4.60;1.58;;;25.50;99.90;;;;;;5076376;28;20043;-60
2023/07/15 11:23:18;;;;;;;5.55;1.77;;;25.50;99.90;;;;;;5092266;28;20500;-61
2023/07/15 11:25:45;;;;;;;3.50;1.65;;;25.60;99.90;;;;;;5093602;28;20044;-61
2023/07/15 11:28:11;;;;;;;6.70;1.40;;;25.60;99.90;;;;;;5094729;28;20085;-61
2023/07/15 11:30:38;;;;;;;4.93;1.52;;;25.30;99.90;;;;;;5093463;28;20154;-61
2023/07/15 11:33:05;;;;;;;3.47;1.55;;;25.20;99.90;;;;;;5092754;28;20063;-62
2023/07/15 11:35:33;;;;;;;2.95;1.55;;;25.10;99.90;;;;;;5100015;28;20329;-61
2023/07/15 11:38:12;;;;;;;3.53;1.60;;;25.00;99.90;;;;;;5079667;28;20044;-62
2023/07/15 11:40:55;;;;;;;3.55;1.67;;;25.00;99.90;;;;;;5067431;28;20546;-62
2023/07/15 11:43:23;;;;;;;3.65;1.40;;;25.20;99.90;;;;;;5089062;28;20563;-63
2023/07/15 11:45:49;;;;;;;3.78;1.60;;;25.30;99.90;;;;;;5090833;28;20040;-63
2023/07/15 11:48:26;;;;;;;3.72;1.48;;;25.40;99.90;;;;;;5090909;28;20539;-63
2023/07/15 11:51:05;;;;;;;4.25;1.70;;;25.50;99.90;;;;;;5091681;28;20131;-63
2023/07/15 11:53:44;;;;;;;3.95;1.35;;;25.50;99.90;;;;;;5089014;28;20040;-62
2023/07/15 11:56:11;;;;;;;5.78;1.95;;;25.50;99.90;;;;;;5073261;28;20052;-63
2023/07/15 11:58:46;;;;;;;3.70;1.40;;;25.40;99.90;;;;;;5089943;28;20036;-62
2023/07/15 12:01:14;;;;;;;4.07;1.85;;;25.30;99.90;;;;;;5090057;28;20508;-61
2023/07/15 12:03:40;;;;;;;4.40;1.92;;;25.40;99.90;;;;;;5089969;28;20044;-60
2023/07/15 12:06:19;;;;;;;4.78;1.83;;;25.50;99.90;;;;;;5088073;28;20076;-61
2023/07/15 12:09:05;;;;;;;3.45;1.60;;;25.70;99.90;;;;;;5087916;28;20070;-61
2023/07/15 12:11:32;;;;;;;5.93;1.85;;;26.00;99.90;;;;;;5090623;28;20040;-61
2023/07/15 12:13:59;;;;;;;5.13;1.90;;;26.00;99.90;;;;;;5089828;28;20056;-61
2023/07/15 12:16:25;;;;;;;5.45;2.17;;;26.10;99.90;;;;;;5090419;28;20047;-61
2023/07/15 12:18:52;;;;;;;5.78;2.22;;;26.10;99.90;;;;;;5091012;28;20036;-61
2023/07/15 12:21:18;;;;;;;5.82;1.95;;;26.30;99.90;;;;;;5089249;28;20040;-61
2023/07/15 12:23:44;;;;;;;4.10;2.13;;;26.10;99.90;;;;;;5088621;28;20040;-62
2023/07/15 12:26:10;;;;;;;5.13;1.98;;;25.90;99.90;;;;;;5090414;28;20036;-61
2023/07/15 12:28:35;;;;;;;4.65;1.90;;;25.70;99.90;;;;;;5090976;28;20056;-61
2023/07/15 12:31:01;;;;;;;5.40;1.80;;;25.60;99.90;;;;;;5090233;28;20518;-61
2023/07/15 12:33:27;;;;;;;4.75;2.00;;;25.70;99.90;;;;;;5123465;27;20048;-61
2023/07/15 12:35:53;;;;;;;4.00;1.95;;;25.80;99.90;;;;;;5090143;28;20092;-61
2023/07/15 12:38:19;;;;;;;6.20;2.10;;;25.70;99.90;;;;;;5088314;28;20047;-61
2023/07/15 12:40:45;;;;;;;5.03;1.92;;;25.50;99.90;;;;;;5089357;28;20135;-61
2023/07/15 12:43:10;;;;;;;3.78;1.85;;;25.20;99.90;;;;;;5090470;28;20044;-61
2023/07/15 12:45:36;;;;;;;4.93;2.50;;;25.10;99.90;;;;;;5097758;28;20040;-61
2023/07/15 12:48:02;;;;;;;6.07;2.15;;;25.30;99.90;;;;;;5112388;27;20075;-61
2023/07/15 12:50:28;;;;;;;5.70;2.35;;;25.40;99.90;;;;;;5088152;28;20067;-61